createdAt,value
2022-11-05T00:01:48.155Z,6.28
2022-11-05T00:04:33.540Z,6.70
2022-11-05T00:07:21.477Z,7.15
2022-11-05T00:09:48.432Z,6.82
2022-11-05T00:12:33.681Z,7.50
2022-11-05T00:15:18.729Z,7.57
2022-11-05T00:17:45.255Z,7.32
2022-11-05T00:20:13.725Z,7.47
2022-11-05T00:22:58.847Z,6.75
2022-11-05T00:25:25.344Z,7.03
2022-11-05T00:27:53.165Z,7.05
2022-11-05T00:30:21.880Z,7.68
2022-11-05T00:32:49.072Z,7.38
2022-11-05T00:35:16.278Z,8.18
2022-11-05T00:37:49.618Z,7.43
2022-11-05T00:40:16.723Z,7.35
2022-11-05T00:43:02.215Z,7.20
2022-11-05T00:45:29.551Z,6.60
2022-11-05T00:48:15.104Z,6.63
2022-11-05T00:50:41.840Z,7.10
2022-11-05T00:53:08.446Z,7.20
2022-11-05T00:55:35.250Z,7.35
2022-11-05T00:58:02.633Z,7.80
2022-11-05T01:00:30.082Z,7.03
2022-11-05T01:03:00.850Z,6.03
2022-11-05T01:05:27.663Z,6.15
2022-11-05T01:07:54.182Z,6.38
2022-11-05T01:10:21.379Z,6.30
2022-11-05T01:12:48.104Z,6.80
2022-11-05T01:15:15.021Z,6.13
2022-11-05T01:17:41.811Z,5.97
2022-11-05T01:20:08.588Z,6.88
2022-11-05T01:22:35.082Z,6.10
2022-11-05T01:25:01.747Z,5.95
2022-11-05T01:27:28.292Z,5.68
2022-11-05T01:29:55.026Z,5.40
2022-11-05T01:32:21.625Z,6.15
2022-11-05T01:34:48.103Z,6.68
2022-11-05T01:37:14.601Z,6.18
2022-11-05T01:39:41.127Z,6.28
2022-11-05T01:42:14.459Z,5.80
2022-11-05T01:44:53.557Z,5.85
2022-11-05T01:47:29.311Z,6.03
2022-11-05T01:49:57.704Z,5.88
2022-11-05T01:52:24.395Z,5.03
2022-11-05T01:54:51.261Z,5.97
2022-11-05T01:57:17.869Z,5.75
2022-11-05T01:59:46.998Z,5.47
2022-11-05T02:02:13.893Z,5.13
2022-11-05T02:04:45.609Z,5.80
2022-11-05T02:07:13.168Z,5.93
2022-11-05T02:09:43.937Z,6.00
2022-11-05T02:12:11.000Z,5.80
2022-11-05T02:14:37.469Z,5.63
2022-11-05T02:17:22.589Z,5.45
2022-11-05T02:20:07.626Z,5.13
2022-11-05T02:22:34.282Z,6.18
2022-11-05T02:25:08.066Z,5.38
2022-11-05T02:27:37.347Z,6.40
2022-11-05T02:30:20.110Z,5.72
2022-11-05T02:32:49.606Z,6.18
2022-11-05T02:35:27.071Z,5.70
2022-11-05T02:37:58.125Z,5.60
2022-11-05T02:40:27.415Z,5.75
2022-11-05T02:42:56.769Z,6.18
2022-11-05T02:45:23.336Z,5.10
2022-11-05T02:48:08.402Z,5.38
2022-11-05T02:50:36.487Z,6.20
2022-11-05T02:53:14.784Z,6.65
2022-11-05T02:55:53.950Z,6.00
2022-11-05T02:58:20.528Z,5.13
2022-11-05T03:00:54.924Z,5.43
2022-11-05T03:03:27.060Z,5.78
2022-11-05T03:06:18.641Z,5.20
2022-11-05T03:08:49.810Z,5.10
2022-11-05T03:11:20.888Z,5.22
2022-11-05T03:13:56.407Z,4.88
2022-11-05T03:16:29.833Z,4.22
2022-11-05T03:19:10.406Z,4.90
2022-11-05T03:21:45.511Z,5.35
2022-11-05T03:24:18.040Z,4.83
2022-11-05T03:26:47.798Z,4.80
2022-11-05T03:29:21.126Z,4.53
2022-11-05T03:31:49.037Z,5.40
2022-11-05T03:34:17.575Z,5.32
2022-11-05T03:36:46.125Z,5.00
2022-11-05T03:39:18.523Z,4.95
2022-11-05T03:41:47.165Z,5.57
2022-11-05T03:44:15.793Z,5.00
2022-11-05T03:46:45.323Z,4.40
2022-11-05T03:49:15.023Z,5.00
2022-11-05T03:51:41.490Z,4.70
2022-11-05T03:54:09.320Z,4.78
2022-11-05T03:56:41.789Z,4.65
2022-11-05T03:59:09.440Z,4.95
2022-11-05T04:01:36.907Z,5.03
2022-11-05T04:04:04.889Z,5.28
2022-11-05T04:06:49.859Z,4.90
2022-11-05T04:09:34.862Z,4.70
2022-11-05T04:12:19.765Z,5.40
2022-11-05T04:14:46.428Z,4.72
2022-11-05T04:17:13.086Z,4.68
2022-11-05T04:19:59.112Z,5.03
2022-11-05T04:22:45.570Z,4.68
2022-11-05T04:25:12.739Z,5.07
2022-11-05T04:27:39.334Z,4.72
2022-11-05T04:30:18.588Z,4.95
2022-11-05T04:32:57.135Z,5.13
2022-11-05T04:35:24.092Z,4.88
2022-11-05T04:37:50.694Z,5.18
2022-11-05T04:40:17.158Z,5.00
2022-11-05T04:42:43.698Z,5.05
2022-11-05T04:45:10.207Z,5.13
2022-11-05T04:47:39.992Z,5.00
2022-11-05T04:50:06.816Z,5.38
2022-11-05T04:52:33.307Z,4.82
2022-11-05T04:54:59.800Z,4.88
2022-11-05T04:57:26.438Z,4.88
2022-11-05T04:59:55.136Z,5.30
2022-11-05T05:02:21.726Z,5.55
2022-11-05T05:04:48.268Z,5.30
2022-11-05T05:07:14.745Z,5.90
2022-11-05T05:09:41.635Z,5.45
2022-11-05T05:12:08.156Z,4.95
2022-11-05T05:14:34.954Z,5.57
2022-11-05T05:17:01.531Z,5.60
2022-11-05T05:20:01.985Z,5.22
2022-11-05T05:22:28.659Z,5.15
2022-11-05T05:24:56.732Z,5.43
2022-11-05T05:27:24.157Z,5.57
2022-11-05T05:29:50.826Z,5.18
2022-11-05T05:32:17.298Z,5.32
2022-11-05T05:34:43.838Z,6.07
2022-11-05T05:37:10.416Z,5.55
2022-11-05T05:39:36.913Z,5.72
2022-11-05T05:42:03.428Z,5.65
2022-11-05T05:44:30.393Z,6.07
2022-11-05T05:46:56.877Z,6.07
2022-11-05T05:49:23.409Z,5.32
2022-11-05T05:51:50.228Z,5.75
2022-11-05T05:54:16.838Z,5.78
2022-11-05T05:56:44.442Z,5.60
2022-11-05T05:59:11.137Z,5.53
2022-11-05T06:01:37.968Z,5.10
2022-11-05T06:04:04.705Z,4.70
2022-11-05T06:06:31.249Z,5.35
2022-11-05T06:08:57.765Z,5.22
2022-11-05T06:11:25.014Z,5.63
2022-11-05T06:13:51.676Z,4.88
2022-11-05T06:16:19.566Z,5.88
2022-11-05T06:18:46.516Z,5.20
2022-11-05T06:21:14.829Z,5.18
2022-11-05T06:23:42.142Z,5.80
2022-11-05T06:26:10.223Z,5.28
2022-11-05T06:28:36.746Z,5.35
2022-11-05T06:31:03.966Z,6.30
2022-11-05T06:33:31.047Z,5.75
2022-11-05T06:36:01.780Z,6.53
2022-11-05T06:38:29.545Z,5.72
2022-11-05T06:40:58.286Z,5.78
2022-11-05T06:43:24.891Z,5.78
2022-11-05T06:45:51.393Z,5.32
2022-11-05T06:48:17.958Z,5.07
2022-11-05T06:50:45.293Z,6.07
2022-11-05T06:53:12.947Z,5.07
2022-11-05T06:55:39.996Z,5.80
2022-11-05T06:58:06.740Z,6.32
2022-11-05T07:00:33.322Z,5.65
2022-11-05T07:03:06.907Z,6.22
2022-11-05T07:05:37.896Z,5.63
2022-11-05T07:08:04.514Z,5.43
2022-11-05T07:10:31.163Z,6.20
2022-11-05T07:12:57.668Z,5.90
2022-11-05T07:15:30.244Z,6.90
2022-11-05T07:18:02.103Z,5.95
2022-11-05T07:20:33.879Z,5.75
2022-11-05T07:23:08.982Z,5.82
2022-11-05T07:25:42.685Z,6.65
2022-11-05T07:28:33.555Z,6.78
2022-11-05T07:31:05.975Z,6.85
2022-11-05T07:33:36.523Z,6.63
2022-11-05T07:36:03.823Z,6.13
2022-11-05T07:38:30.596Z,7.15
2022-11-05T07:40:59.350Z,7.60
2022-11-05T07:43:37.000Z,6.80
2022-11-05T07:46:13.617Z,6.72
2022-11-05T07:48:40.547Z,6.93
2022-11-05T07:51:07.148Z,6.43
2022-11-05T07:53:33.665Z,7.20
2022-11-05T07:56:00.203Z,8.13
2022-11-05T07:58:26.847Z,7.55
2022-11-05T08:00:53.402Z,8.02
2022-11-05T08:03:20.701Z,7.93
2022-11-05T08:05:47.917Z,7.53
2022-11-05T08:08:15.677Z,7.93
2022-11-05T08:10:45.544Z,8.48
2022-11-05T08:13:13.405Z,7.93
2022-11-05T08:15:40.896Z,10.00
2022-11-05T08:18:08.788Z,8.18
2022-11-05T08:20:35.577Z,8.10
2022-11-05T08:23:02.157Z,7.75
2022-11-05T08:25:28.899Z,9.30
2022-11-05T08:33:00.861Z,8.43
2022-11-05T08:35:16.804Z,7.32
2022-11-05T08:41:07.081Z,8.48
2022-11-05T08:46:17.206Z,8.60
2022-11-05T08:48:43.666Z,8.55
2022-11-05T08:51:10.128Z,9.23
2022-11-05T08:53:36.734Z,9.10
2022-11-05T08:56:03.198Z,9.20
2022-11-05T08:58:29.784Z,9.23
2022-11-05T09:01:01.787Z,9.13
2022-11-05T09:03:31.138Z,9.75
2022-11-05T09:05:57.776Z,9.25
2022-11-05T09:08:24.239Z,10.32
2022-11-05T09:10:51.062Z,10.50
2022-11-05T09:13:19.807Z,9.57
2022-11-05T09:15:49.897Z,10.02
2022-11-05T09:18:50.465Z,9.38
2022-11-05T09:21:17.802Z,10.00
2022-11-05T09:23:44.953Z,9.57
2022-11-05T09:26:12.111Z,8.55
2022-11-05T09:28:39.148Z,8.70
2022-11-05T09:31:09.749Z,8.68
2022-11-05T09:33:37.335Z,8.55
2022-11-05T09:36:04.361Z,7.72
2022-11-05T09:38:32.049Z,7.57
2022-11-05T09:41:04.801Z,6.72
2022-11-05T09:43:37.555Z,5.95
2022-11-05T09:46:08.612Z,5.40
2022-11-05T09:48:35.583Z,5.25
2022-11-05T09:51:04.084Z,5.32
2022-11-05T09:53:30.575Z,5.75
2022-11-05T09:55:58.692Z,4.88
2022-11-05T09:58:44.212Z,4.10
2022-11-05T10:01:13.364Z,5.13
2022-11-05T10:03:43.616Z,4.95
2022-11-05T10:06:13.389Z,5.13
2022-11-05T10:08:42.252Z,4.70
2022-11-05T10:11:23.101Z,4.72
2022-11-05T10:13:56.394Z,4.93
2022-11-05T10:16:29.129Z,4.78
2022-11-05T10:19:07.382Z,4.40
2022-11-05T10:22:04.390Z,4.15
2022-11-05T10:24:21.307Z,4.85
2022-11-05T10:26:50.685Z,4.82
2022-11-05T10:29:22.646Z,5.00
2022-11-05T10:31:49.279Z,4.20
2022-11-05T10:34:17.918Z,4.35
2022-11-05T10:36:44.535Z,4.25
2022-11-05T10:39:11.028Z,4.32
2022-11-05T10:41:37.547Z,4.18
2022-11-05T10:44:18.623Z,4.60
2022-11-05T10:46:53.926Z,4.03
2022-11-05T10:49:34.225Z,4.37
2022-11-05T10:52:04.972Z,4.38
2022-11-05T10:54:33.694Z,4.50
2022-11-05T10:57:00.271Z,4.15
2022-11-05T10:59:30.227Z,4.07
2022-11-05T11:02:01.314Z,4.32
2022-11-05T11:04:36.558Z,4.07
2022-11-05T11:07:04.448Z,3.80
2022-11-05T11:09:33.242Z,4.22
2022-11-05T11:11:59.728Z,4.00
2022-11-05T11:14:26.650Z,3.88
2022-11-05T11:16:57.803Z,3.60
2022-11-05T12:54:07.437Z,3.40
2022-11-05T12:56:45.065Z,3.30
2022-11-05T12:59:15.031Z,3.90
2022-11-05T13:02:03.354Z,6.68
2022-11-05T13:04:41.800Z,7.15
2022-11-05T13:07:31.365Z,5.10
2022-11-05T13:13:34.804Z,3.17
2022-11-05T13:16:25.825Z,3.83
2022-11-05T13:19:03.289Z,3.72
2022-11-05T13:21:30.489Z,3.88
2022-11-05T13:24:23.799Z,3.63
2022-11-05T13:26:58.023Z,3.65
2022-11-05T13:29:47.933Z,3.35
2022-11-05T13:32:18.271Z,3.38
2022-11-05T13:34:49.657Z,3.42
2022-11-05T13:37:38.171Z,3.53
2022-11-05T13:40:09.217Z,3.60
2022-11-05T13:42:58.529Z,3.78
2022-11-05T13:46:09.753Z,3.58
2022-11-05T13:59:23.830Z,3.40
2022-11-05T14:02:02.877Z,3.22
2022-11-05T14:07:27.656Z,2.90
2022-11-05T14:10:47.981Z,3.30
2022-11-05T14:13:18.038Z,3.35
2022-11-05T14:16:06.806Z,2.33
2022-11-05T14:19:14.351Z,2.40
2022-11-05T14:26:30.810Z,2.00
2022-11-05T14:38:16.692Z,2.53
2022-11-05T16:32:26.901Z,4.07
2022-11-05T19:46:08.157Z,4.40
2022-11-05T19:49:05.119Z,4.47
2022-11-05T20:37:23.042Z,4.47
2022-11-05T20:47:30.216Z,3.95
2022-11-05T20:49:48.249Z,3.92
2022-11-05T20:53:24.557Z,4.10
2022-11-05T21:32:05.116Z,3.72
2022-11-05T21:34:45.635Z,3.53
2022-11-05T21:41:14.399Z,3.45
2022-11-05T21:43:43.035Z,3.30
2022-11-05T21:46:14.980Z,3.42
